sensor_id;sensor_type;location;lat;lon;timestamp;P1;durP1;ratioP1;P2;durP2;ratioP2
70303;SDS011;57712;48.752;11.348;2022-09-09T00:00:06;8.67;;;3.10;;
70303;SDS011;57712;48.752;11.348;2022-09-09T00:02:38;9.38;;;2.92;;
70303;SDS011;57712;48.752;11.348;2022-09-09T00:05:14;26.55;;;4.18;;
70303;SDS011;57712;48.752;11.348;2022-09-09T00:07:51;27.23;;;4.05;;
70303;SDS011;57712;48.752;11.348;2022-09-09T00:10:36;19.35;;;4.10;;
70303;SDS011;57712;48.752;11.348;2022-09-09T00:16:01;20.25;;;3.80;;
70303;SDS011;57712;48.752;11.348;2022-09-09T00:21:20;8.60;;;3.25;;
70303;SDS011;57712;48.752;11.348;2022-09-09T00:23:57;8.35;;;3.63;;
70303;SDS011;57712;48.752;11.348;2022-09-09T00:26:33;9.30;;;3.20;;
70303;SDS011;57712;48.752;11.348;2022-09-09T00:31:34;8.80;;;3.08;;
70303;SDS011;57712;48.752;11.348;2022-09-09T00:34:15;10.10;;;3.30;;
70303;SDS011;57712;48.752;11.348;2022-09-09T00:36:45;10.52;;;2.90;;
70303;SDS011;57712;48.752;11.348;2022-09-09T00:39:24;7.50;;;2.50;;
70303;SDS011;57712;48.752;11.348;2022-09-09T00:42:09;7.10;;;2.42;;
70303;SDS011;57712;48.752;11.348;2022-09-09T00:45:08;9.77;;;3.08;;
70303;SDS011;57712;48.752;11.348;2022-09-09T00:47:58;7.82;;;2.85;;
70303;SDS011;57712;48.752;11.348;2022-09-09T00:50:35;6.72;;;2.47;;
70303;SDS011;57712;48.752;11.348;2022-09-09T00:53:14;6.17;;;2.13;;
70303;SDS011;57712;48.752;11.348;2022-09-09T00:59:08;7.60;;;2.60;;
70303;SDS011;57712;48.752;11.348;2022-09-09T01:02:07;7.18;;;2.60;;
70303;SDS011;57712;48.752;11.348;2022-09-09T01:04:44;5.70;;;2.83;;
70303;SDS011;57712;48.752;11.348;2022-09-09T01:07:14;5.00;;;2.20;;
70303;SDS011;57712;48.752;11.348;2022-09-09T01:09:59;5.50;;;2.53;;
70303;SDS011;57712;48.752;11.348;2022-09-09T01:12:39;6.20;;;1.58;;
70303;SDS011;57712;48.752;11.348;2022-09-09T01:15:09;5.22;;;1.90;;
70303;SDS011;57712;48.752;11.348;2022-09-09T01:17:40;5.82;;;2.00;;
70303;SDS011;57712;48.752;11.348;2022-09-09T01:26:04;4.88;;;2.10;;
70303;SDS011;57712;48.752;11.348;2022-09-09T01:28:39;4.70;;;2.50;;
70303;SDS011;57712;48.752;11.348;2022-09-09T01:31:09;5.18;;;2.60;;
70303;SDS011;57712;48.752;11.348;2022-09-09T01:33:39;4.90;;;1.50;;
70303;SDS011;57712;48.752;11.348;2022-09-09T01:36:17;4.32;;;1.30;;
70303;SDS011;57712;48.752;11.348;2022-09-09T01:38:50;5.25;;;1.17;;
70303;SDS011;57712;48.752;11.348;2022-09-09T01:41:16;3.70;;;1.25;;
70303;SDS011;57712;48.752;11.348;2022-09-09T01:43:43;3.60;;;1.30;;
70303;SDS011;57712;48.752;11.348;2022-09-09T01:46:09;4.20;;;1.43;;
70303;SDS011;57712;48.752;11.348;2022-09-09T01:48:38;3.88;;;1.45;;
70303;SDS011;57712;48.752;11.348;2022-09-09T01:51:07;4.15;;;1.23;;
70303;SDS011;57712;48.752;11.348;2022-09-09T01:53:36;4.15;;;1.10;;
70303;SDS011;57712;48.752;11.348;2022-09-09T01:56:14;3.78;;;1.40;;
70303;SDS011;57712;48.752;11.348;2022-09-09T01:59:07;4.20;;;1.43;;
70303;SDS011;57712;48.752;11.348;2022-09-09T02:01:52;3.40;;;1.25;;
70303;SDS011;57712;48.752;11.348;2022-09-09T02:04:49;3.63;;;1.25;;
70303;SDS011;57712;48.752;11.348;2022-09-09T02:07:28;3.50;;;1.10;;
70303;SDS011;57712;48.752;11.348;2022-09-09T02:10:05;4.00;;;1.20;;
70303;SDS011;57712;48.752;11.348;2022-09-09T02:12:41;4.87;;;1.00;;
70303;SDS011;57712;48.752;11.348;2022-09-09T02:18:27;4.75;;;1.30;;
70303;SDS011;57712;48.752;11.348;2022-09-09T02:20:59;3.40;;;1.00;;
70303;SDS011;57712;48.752;11.348;2022-09-09T02:23:26;4.88;;;1.33;;
70303;SDS011;57712;48.752;11.348;2022-09-09T02:25:54;5.30;;;1.53;;
70303;SDS011;57712;48.752;11.348;2022-09-09T02:28:24;4.20;;;1.77;;
70303;SDS011;57712;48.752;11.348;2022-09-09T02:30:55;5.50;;;1.75;;
70303;SDS011;57712;48.752;11.348;2022-09-09T02:33:23;4.75;;;1.67;;
70303;SDS011;57712;48.752;11.348;2022-09-09T02:35:53;3.97;;;1.35;;
70303;SDS011;57712;48.752;11.348;2022-09-09T02:38:23;5.80;;;1.17;;
70303;SDS011;57712;48.752;11.348;2022-09-09T02:40:54;4.50;;;0.98;;
70303;SDS011;57712;48.752;11.348;2022-09-09T02:43:21;6.63;;;1.75;;
70303;SDS011;57712;48.752;11.348;2022-09-09T02:45:51;4.57;;;1.20;;
70303;SDS011;57712;48.752;11.348;2022-09-09T02:51:32;4.20;;;1.63;;
70303;SDS011;57712;48.752;11.348;2022-09-09T02:56:45;5.40;;;1.58;;
70303;SDS011;57712;48.752;11.348;2022-09-09T02:59:19;5.68;;;1.48;;
70303;SDS011;57712;48.752;11.348;2022-09-09T03:01:46;4.88;;;1.70;;
70303;SDS011;57712;48.752;11.348;2022-09-09T03:04:13;5.60;;;1.53;;
70303;SDS011;57712;48.752;11.348;2022-09-09T03:06:40;3.92;;;1.17;;
70303;SDS011;57712;48.752;11.348;2022-09-09T03:09:06;3.58;;;1.08;;
70303;SDS011;57712;48.752;11.348;2022-09-09T03:11:34;4.85;;;1.15;;
70303;SDS011;57712;48.752;11.348;2022-09-09T03:14:01;4.78;;;1.52;;
70303;SDS011;57712;48.752;11.348;2022-09-09T03:16:28;3.70;;;1.27;;
70303;SDS011;57712;48.752;11.348;2022-09-09T03:18:55;3.90;;;1.35;;
70303;SDS011;57712;48.752;11.348;2022-09-09T03:21:21;5.68;;;1.30;;
70303;SDS011;57712;48.752;11.348;2022-09-09T03:23:48;5.30;;;1.23;;
70303;SDS011;57712;48.752;11.348;2022-09-09T03:26:14;4.88;;;1.33;;
70303;SDS011;57712;48.752;11.348;2022-09-09T03:28:41;3.90;;;1.23;;
70303;SDS011;57712;48.752;11.348;2022-09-09T03:31:08;4.65;;;1.60;;
70303;SDS011;57712;48.752;11.348;2022-09-09T03:33:37;5.05;;;1.45;;
70303;SDS011;57712;48.752;11.348;2022-09-09T03:36:04;4.22;;;0.98;;
70303;SDS011;57712;48.752;11.348;2022-09-09T03:38:31;6.28;;;1.40;;
70303;SDS011;57712;48.752;11.348;2022-09-09T03:40:58;5.20;;;1.20;;
70303;SDS011;57712;48.752;11.348;2022-09-09T03:43:26;5.28;;;1.30;;
70303;SDS011;57712;48.752;11.348;2022-09-09T03:45:54;6.10;;;1.35;;
70303;SDS011;57712;48.752;11.348;2022-09-09T03:48:24;4.80;;;1.40;;
70303;SDS011;57712;48.752;11.348;2022-09-09T03:50:52;5.65;;;1.60;;
70303;SDS011;57712;48.752;11.348;2022-09-09T03:53:20;5.13;;;1.27;;
70303;SDS011;57712;48.752;11.348;2022-09-09T03:55:51;5.75;;;1.20;;
70303;SDS011;57712;48.752;11.348;2022-09-09T03:58:21;5.25;;;1.58;;
70303;SDS011;57712;48.752;11.348;2022-09-09T04:01:00;5.45;;;1.33;;
70303;SDS011;57712;48.752;11.348;2022-09-09T04:03:29;4.15;;;1.42;;
70303;SDS011;57712;48.752;11.348;2022-09-09T04:05:57;4.70;;;1.40;;
70303;SDS011;57712;48.752;11.348;2022-09-09T04:08:25;7.32;;;1.55;;
70303;SDS011;57712;48.752;11.348;2022-09-09T04:10:52;4.70;;;1.70;;
70303;SDS011;57712;48.752;11.348;2022-09-09T04:13:19;7.60;;;1.77;;
70303;SDS011;57712;48.752;11.348;2022-09-09T04:15:52;3.60;;;1.23;;
70303;SDS011;57712;48.752;11.348;2022-09-09T04:18:20;5.27;;;1.30;;
70303;SDS011;57712;48.752;11.348;2022-09-09T04:20:48;4.10;;;1.55;;
70303;SDS011;57712;48.752;11.348;2022-09-09T04:23:16;5.25;;;1.88;;
70303;SDS011;57712;48.752;11.348;2022-09-09T04:25:45;4.47;;;2.03;;
70303;SDS011;57712;48.752;11.348;2022-09-09T04:28:14;5.30;;;2.60;;
70303;SDS011;57712;48.752;11.348;2022-09-09T04:30:41;6.20;;;2.70;;
70303;SDS011;57712;48.752;11.348;2022-09-09T04:33:08;7.93;;;2.70;;
70303;SDS011;57712;48.752;11.348;2022-09-09T04:35:36;10.63;;;2.88;;
70303;SDS011;57712;48.752;11.348;2022-09-09T04:38:04;11.35;;;3.75;;
70303;SDS011;57712;48.752;11.348;2022-09-09T04:40:33;10.73;;;3.03;;
70303;SDS011;57712;48.752;11.348;2022-09-09T04:43:00;11.23;;;2.90;;
70303;SDS011;57712;48.752;11.348;2022-09-09T04:45:27;10.30;;;3.25;;
70303;SDS011;57712;48.752;11.348;2022-09-09T04:47:54;9.43;;;2.72;;
70303;SDS011;57712;48.752;11.348;2022-09-09T04:50:21;12.55;;;4.38;;
70303;SDS011;57712;48.752;11.348;2022-09-09T04:52:47;12.73;;;3.72;;
70303;SDS011;57712;48.752;11.348;2022-09-09T04:55:14;13.63;;;4.43;;
70303;SDS011;57712;48.752;11.348;2022-09-09T04:57:41;12.43;;;3.20;;
70303;SDS011;57712;48.752;11.348;2022-09-09T05:00:07;11.23;;;3.70;;
70303;SDS011;57712;48.752;11.348;2022-09-09T05:02:36;8.68;;;1.98;;
70303;SDS011;57712;48.752;11.348;2022-09-09T05:05:05;4.80;;;1.80;;
70303;SDS011;57712;48.752;11.348;2022-09-09T05:07:32;5.90;;;1.80;;
70303;SDS011;57712;48.752;11.348;2022-09-09T05:09:58;5.03;;;1.30;;
70303;SDS011;57712;48.752;11.348;2022-09-09T05:12:25;9.05;;;1.77;;
70303;SDS011;57712;48.752;11.348;2022-09-09T05:14:52;4.35;;;1.40;;
70303;SDS011;57712;48.752;11.348;2022-09-09T05:17:18;6.10;;;1.73;;
70303;SDS011;57712;48.752;11.348;2022-09-09T05:19:45;7.83;;;2.43;;
70303;SDS011;57712;48.752;11.348;2022-09-09T05:22:11;14.50;;;4.45;;
70303;SDS011;57712;48.752;11.348;2022-09-09T05:24:38;16.70;;;5.82;;
70303;SDS011;57712;48.752;11.348;2022-09-09T05:27:04;7.15;;;2.42;;
70303;SDS011;57712;48.752;11.348;2022-09-09T05:29:32;9.23;;;2.08;;
70303;SDS011;57712;48.752;11.348;2022-09-09T05:32:01;7.13;;;2.10;;
70303;SDS011;57712;48.752;11.348;2022-09-09T05:34:28;6.97;;;2.10;;
70303;SDS011;57712;48.752;11.348;2022-09-09T05:36:55;5.88;;;2.17;;
70303;SDS011;57712;48.752;11.348;2022-09-09T05:39:21;5.25;;;2.17;;
70303;SDS011;57712;48.752;11.348;2022-09-09T05:41:48;9.25;;;3.35;;
70303;SDS011;57712;48.752;11.348;2022-09-09T05:44:14;8.13;;;3.30;;
70303;SDS011;57712;48.752;11.348;2022-09-09T05:46:41;4.80;;;1.98;;
70303;SDS011;57712;48.752;11.348;2022-09-09T05:49:07;4.20;;;2.05;;
70303;SDS011;57712;48.752;11.348;2022-09-09T05:51:34;4.68;;;2.28;;
70303;SDS011;57712;48.752;11.348;2022-09-09T05:54:01;6.05;;;2.60;;
70303;SDS011;57712;48.752;11.348;2022-09-09T05:56:28;5.63;;;2.27;;
70303;SDS011;57712;48.752;11.348;2022-09-09T05:58:55;5.18;;;2.38;;
70303;SDS011;57712;48.752;11.348;2022-09-09T06:01:24;7.20;;;2.40;;
70303;SDS011;57712;48.752;11.348;2022-09-09T06:03:52;6.00;;;2.92;;
70303;SDS011;57712;48.752;11.348;2022-09-09T06:06:20;6.30;;;3.00;;
70303;SDS011;57712;48.752;11.348;2022-09-09T06:08:51;6.47;;;3.00;;
70303;SDS011;57712;48.752;11.348;2022-09-09T06:11:22;6.55;;;2.90;;
70303;SDS011;57712;48.752;11.348;2022-09-09T06:13:50;7.03;;;3.78;;
70303;SDS011;57712;48.752;11.348;2022-09-09T06:16:20;6.97;;;3.30;;
70303;SDS011;57712;48.752;11.348;2022-09-09T06:18:51;7.60;;;2.92;;
70303;SDS011;57712;48.752;11.348;2022-09-09T06:21:21;5.50;;;2.63;;
70303;SDS011;57712;48.752;11.348;2022-09-09T06:23:49;7.20;;;2.80;;
70303;SDS011;57712;48.752;11.348;2022-09-09T06:26:33;7.47;;;3.20;;
70303;SDS011;57712;48.752;11.348;2022-09-09T06:29:01;7.82;;;3.83;;
70303;SDS011;57712;48.752;11.348;2022-09-09T06:31:30;6.90;;;3.60;;
70303;SDS011;57712;48.752;11.348;2022-09-09T06:34:00;8.87;;;4.37;;
70303;SDS011;57712;48.752;11.348;2022-09-09T06:36:28;9.05;;;4.25;;
70303;SDS011;57712;48.752;11.348;2022-09-09T06:38:57;10.05;;;4.75;;
70303;SDS011;57712;48.752;11.348;2022-09-09T06:41:25;7.50;;;4.15;;
70303;SDS011;57712;48.752;11.348;2022-09-09T06:43:53;8.65;;;3.75;;
70303;SDS011;57712;48.752;11.348;2022-09-09T06:46:25;7.23;;;4.47;;
70303;SDS011;57712;48.752;11.348;2022-09-09T06:48:54;9.98;;;4.40;;
70303;SDS011;57712;48.752;11.348;2022-09-09T06:51:22;10.88;;;4.50;;
70303;SDS011;57712;48.752;11.348;2022-09-09T06:53:50;7.45;;;3.83;;
70303;SDS011;57712;48.752;11.348;2022-09-09T06:56:20;7.75;;;4.35;;
70303;SDS011;57712;48.752;11.348;2022-09-09T06:58:51;7.97;;;3.97;;
70303;SDS011;57712;48.752;11.348;2022-09-09T07:01:19;8.30;;;4.80;;
70303;SDS011;57712;48.752;11.348;2022-09-09T07:03:48;7.63;;;4.03;;
70303;SDS011;57712;48.752;11.348;2022-09-09T07:06:18;7.22;;;4.10;;
70303;SDS011;57712;48.752;11.348;2022-09-09T07:08:50;8.02;;;4.38;;
70303;SDS011;57712;48.752;11.348;2022-09-09T07:11:22;9.27;;;3.80;;
70303;SDS011;57712;48.752;11.348;2022-09-09T07:13:52;8.38;;;4.45;;
70303;SDS011;57712;48.752;11.348;2022-09-09T07:16:19;8.32;;;4.30;;
70303;SDS011;57712;48.752;11.348;2022-09-09T07:18:50;8.30;;;4.07;;
70303;SDS011;57712;48.752;11.348;2022-09-09T07:21:17;7.78;;;3.92;;
70303;SDS011;57712;48.752;11.348;2022-09-09T07:23:45;10.33;;;4.13;;
70303;SDS011;57712;48.752;11.348;2022-09-09T07:26:13;9.50;;;4.60;;
70303;SDS011;57712;48.752;11.348;2022-09-09T07:28:41;9.73;;;4.30;;
70303;SDS011;57712;48.752;11.348;2022-09-09T07:31:21;7.88;;;4.03;;
70303;SDS011;57712;48.752;11.348;2022-09-09T07:33:50;9.85;;;4.75;;
70303;SDS011;57712;48.752;11.348;2022-09-09T07:38:45;9.07;;;4.00;;
70303;SDS011;57712;48.752;11.348;2022-09-09T07:41:14;7.88;;;4.00;;
70303;SDS011;57712;48.752;11.348;2022-09-09T07:43:43;11.15;;;4.35;;
70303;SDS011;57712;48.752;11.348;2022-09-09T07:46:12;9.80;;;4.70;;
70303;SDS011;57712;48.752;11.348;2022-09-09T07:48:44;10.67;;;3.97;;
70303;SDS011;57712;48.752;11.348;2022-09-09T07:51:13;10.63;;;4.03;;
70303;SDS011;57712;48.752;11.348;2022-09-09T07:53:46;11.57;;;4.05;;
70303;SDS011;57712;48.752;11.348;2022-09-09T07:56:14;10.10;;;3.60;;
70303;SDS011;57712;48.752;11.348;2022-09-09T07:58:45;8.35;;;3.03;;
70303;SDS011;57712;48.752;11.348;2022-09-09T08:01:16;8.80;;;3.50;;
70303;SDS011;57712;48.752;11.348;2022-09-09T08:04:02;21.75;;;8.48;;
70303;SDS011;57712;48.752;11.348;2022-09-09T08:06:32;28.27;;;9.70;;
70303;SDS011;57712;48.752;11.348;2022-09-09T08:09:02;11.95;;;5.30;;
70303;SDS011;57712;48.752;11.348;2022-09-09T08:11:29;8.90;;;5.30;;
70303;SDS011;57712;48.752;11.348;2022-09-09T08:14:03;7.33;;;3.40;;
70303;SDS011;57712;48.752;11.348;2022-09-09T08:16:31;7.78;;;3.20;;
70303;SDS011;57712;48.752;11.348;2022-09-09T08:18:59;7.82;;;3.28;;
70303;SDS011;57712;48.752;11.348;2022-09-09T08:21:27;7.45;;;3.33;;
70303;SDS011;57712;48.752;11.348;2022-09-09T08:23:56;8.00;;;3.70;;
70303;SDS011;57712;48.752;11.348;2022-09-09T08:26:27;5.23;;;2.50;;
70303;SDS011;57712;48.752;11.348;2022-09-09T08:28:56;9.15;;;3.05;;
70303;SDS011;57712;48.752;11.348;2022-09-09T08:31:25;5.88;;;3.00;;
70303;SDS011;57712;48.752;11.348;2022-09-09T08:33:54;7.80;;;2.38;;
70303;SDS011;57712;48.752;11.348;2022-09-09T08:36:24;6.28;;;2.05;;
70303;SDS011;57712;48.752;11.348;2022-09-09T08:38:52;5.70;;;1.90;;
70303;SDS011;57712;48.752;11.348;2022-09-09T08:47:01;4.30;;;1.60;;
70303;SDS011;57712;48.752;11.348;2022-09-09T08:52:22;5.10;;;1.27;;
70303;SDS011;57712;48.752;11.348;2022-09-09T08:54:54;5.13;;;1.52;;
70303;SDS011;57712;48.752;11.348;2022-09-09T08:57:28;4.90;;;1.58;;
70303;SDS011;57712;48.752;11.348;2022-09-09T08:59:57;4.93;;;1.58;;
70303;SDS011;57712;48.752;11.348;2022-09-09T09:02:26;5.45;;;2.00;;
70303;SDS011;57712;48.752;11.348;2022-09-09T09:07:59;4.32;;;1.60;;
70303;SDS011;57712;48.752;11.348;2022-09-09T09:10:47;4.38;;;1.38;;
70303;SDS011;57712;48.752;11.348;2022-09-09T09:16:16;5.43;;;1.70;;
70303;SDS011;57712;48.752;11.348;2022-09-09T09:18:48;5.90;;;2.10;;
70303;SDS011;57712;48.752;11.348;2022-09-09T09:21:16;4.85;;;1.40;;
70303;SDS011;57712;48.752;11.348;2022-09-09T09:24:00;4.32;;;1.48;;
70303;SDS011;57712;48.752;11.348;2022-09-09T09:26:34;4.35;;;1.67;;
70303;SDS011;57712;48.752;11.348;2022-09-09T09:29:08;4.55;;;1.23;;
70303;SDS011;57712;48.752;11.348;2022-09-09T09:31:38;5.13;;;1.07;;
70303;SDS011;57712;48.752;11.348;2022-09-09T09:34:04;4.30;;;0.88;;
70303;SDS011;57712;48.752;11.348;2022-09-09T09:36:37;5.18;;;0.90;;
70303;SDS011;57712;48.752;11.348;2022-09-09T09:39:10;3.97;;;1.05;;
70303;SDS011;57712;48.752;11.348;2022-09-09T09:42:09;4.10;;;1.23;;
70303;SDS011;57712;48.752;11.348;2022-09-09T09:44:40;5.13;;;0.93;;
70303;SDS011;57712;48.752;11.348;2022-09-09T09:47:15;3.92;;;1.10;;
70303;SDS011;57712;48.752;11.348;2022-09-09T09:49:51;4.45;;;0.80;;
70303;SDS011;57712;48.752;11.348;2022-09-09T09:52:21;4.43;;;1.10;;
70303;SDS011;57712;48.752;11.348;2022-09-09T09:54:50;3.45;;;0.80;;
70303;SDS011;57712;48.752;11.348;2022-09-09T09:57:18;5.67;;;0.70;;
70303;SDS011;57712;48.752;11.348;2022-09-09T10:00:15;3.65;;;0.90;;
70303;SDS011;57712;48.752;11.348;2022-09-09T10:02:44;4.28;;;0.90;;
70303;SDS011;57712;48.752;11.348;2022-09-09T10:05:13;4.88;;;1.10;;
70303;SDS011;57712;48.752;11.348;2022-09-09T10:07:40;4.65;;;1.13;;
70303;SDS011;57712;48.752;11.348;2022-09-09T10:10:08;3.80;;;1.17;;
70303;SDS011;57712;48.752;11.348;2022-09-09T10:12:51;4.05;;;1.08;;
70303;SDS011;57712;48.752;11.348;2022-09-09T10:15:33;4.88;;;1.02;;
70303;SDS011;57712;48.752;11.348;2022-09-09T10:21:15;4.07;;;1.10;;
70303;SDS011;57712;48.752;11.348;2022-09-09T10:34:49;4.03;;;1.20;;
70303;SDS011;57712;48.752;11.348;2022-09-09T10:51:58;4.80;;;1.30;;
70303;SDS011;57712;48.752;11.348;2022-09-09T10:54:42;5.05;;;1.20;;
70303;SDS011;57712;48.752;11.348;2022-09-09T11:00:13;6.50;;;1.95;;
70303;SDS011;57712;48.752;11.348;2022-09-09T11:02:43;6.25;;;1.65;;
70303;SDS011;57712;48.752;11.348;2022-09-09T11:05:29;4.90;;;1.13;;
70303;SDS011;57712;48.752;11.348;2022-09-09T11:08:14;6.40;;;1.42;;
70303;SDS011;57712;48.752;11.348;2022-09-09T11:16:26;4.18;;;1.58;;
70303;SDS011;57712;48.752;11.348;2022-09-09T11:19:02;4.70;;;1.03;;
70303;SDS011;57712;48.752;11.348;2022-09-09T11:21:38;5.35;;;1.10;;
70303;SDS011;57712;48.752;11.348;2022-09-09T11:24:11;4.63;;;1.50;;
70303;SDS011;57712;48.752;11.348;2022-09-09T11:26:50;5.03;;;1.02;;
70303;SDS011;57712;48.752;11.348;2022-09-09T11:29:28;5.78;;;1.83;;
70303;SDS011;57712;48.752;11.348;2022-09-09T11:40:15;3.65;;;1.15;;
70303;SDS011;57712;48.752;11.348;2022-09-09T11:42:46;5.32;;;1.30;;
70303;SDS011;57712;48.752;11.348;2022-09-09T11:47:51;4.97;;;1.30;;
70303;SDS011;57712;48.752;11.348;2022-09-09T11:52:49;5.15;;;1.80;;
70303;SDS011;57712;48.752;11.348;2022-09-09T11:57:58;4.20;;;1.10;;
70303;SDS011;57712;48.752;11.348;2022-09-09T12:03:09;5.05;;;1.40;;
70303;SDS011;57712;48.752;11.348;2022-09-09T12:11:49;3.83;;;1.00;;
70303;SDS011;57712;48.752;11.348;2022-09-09T12:14:20;4.60;;;1.45;;
70303;SDS011;57712;48.752;11.348;2022-09-09T12:16:48;4.28;;;1.58;;
70303;SDS011;57712;48.752;11.348;2022-09-09T12:19:18;4.93;;;1.42;;
70303;SDS011;57712;48.752;11.348;2022-09-09T12:22:00;4.13;;;1.65;;
70303;SDS011;57712;48.752;11.348;2022-09-09T12:24:37;5.57;;;1.43;;
70303;SDS011;57712;48.752;11.348;2022-09-09T12:27:14;5.25;;;1.42;;
70303;SDS011;57712;48.752;11.348;2022-09-09T12:29:55;6.10;;;1.75;;
70303;SDS011;57712;48.752;11.348;2022-09-09T12:32:33;4.60;;;1.30;;
70303;SDS011;57712;48.752;11.348;2022-09-09T12:35:43;5.72;;;1.50;;
70303;SDS011;57712;48.752;11.348;2022-09-09T12:37:52;3.87;;;1.23;;
70303;SDS011;57712;48.752;11.348;2022-09-09T12:40:25;5.03;;;1.42;;
70303;SDS011;57712;48.752;11.348;2022-09-09T12:42:53;4.18;;;1.60;;
70303;SDS011;57712;48.752;11.348;2022-09-09T12:45:23;5.55;;;1.58;;
70303;SDS011;57712;48.752;11.348;2022-09-09T12:47:56;4.28;;;1.40;;
70303;SDS011;57712;48.752;11.348;2022-09-09T12:50:27;4.70;;;1.27;;
70303;SDS011;57712;48.752;11.348;2022-09-09T12:53:04;4.70;;;1.75;;
70303;SDS011;57712;48.752;11.348;2022-09-09T12:55:36;5.00;;;1.85;;
70303;SDS011;57712;48.752;11.348;2022-09-09T12:58:04;3.92;;;1.00;;
70303;SDS011;57712;48.752;11.348;2022-09-09T13:00:33;4.68;;;1.90;;
70303;SDS011;57712;48.752;11.348;2022-09-09T13:03:02;4.90;;;1.33;;
70303;SDS011;57712;48.752;11.348;2022-09-09T13:05:40;4.40;;;1.73;;
70303;SDS011;57712;48.752;11.348;2022-09-09T13:08:11;4.65;;;1.25;;
70303;SDS011;57712;48.752;11.348;2022-09-09T13:11:12;4.82;;;1.48;;
70303;SDS011;57712;48.752;11.348;2022-09-09T13:13:36;5.05;;;1.33;;
70303;SDS011;57712;48.752;11.348;2022-09-09T13:16:05;4.73;;;1.70;;
70303;SDS011;57712;48.752;11.348;2022-09-09T13:18:43;4.53;;;0.85;;
70303;SDS011;57712;48.752;11.348;2022-09-09T13:21:09;5.35;;;1.65;;
70303;SDS011;57712;48.752;11.348;2022-09-09T13:23:37;5.50;;;1.35;;
70303;SDS011;57712;48.752;11.348;2022-09-09T13:26:05;4.50;;;1.50;;
70303;SDS011;57712;48.752;11.348;2022-09-09T13:28:52;4.63;;;1.00;;
70303;SDS011;57712;48.752;11.348;2022-09-09T13:31:24;4.63;;;1.40;;
70303;SDS011;57712;48.752;11.348;2022-09-09T13:33:55;5.20;;;0.98;;
70303;SDS011;57712;48.752;11.348;2022-09-09T13:36:32;5.38;;;1.58;;
70303;SDS011;57712;48.752;11.348;2022-09-09T13:39:02;3.65;;;1.20;;
70303;SDS011;57712;48.752;11.348;2022-09-09T13:41:32;4.50;;;1.00;;
70303;SDS011;57712;48.752;11.348;2022-09-09T13:44:02;5.20;;;0.90;;
70303;SDS011;57712;48.752;11.348;2022-09-09T13:46:41;4.18;;;1.40;;
70303;SDS011;57712;48.752;11.348;2022-09-09T13:51:41;5.20;;;1.40;;
70303;SDS011;57712;48.752;11.348;2022-09-09T13:54:14;5.00;;;1.33;;
70303;SDS011;57712;48.752;11.348;2022-09-09T13:56:42;5.15;;;0.95;;
70303;SDS011;57712;48.752;11.348;2022-09-09T13:59:11;4.47;;;1.25;;
70303;SDS011;57712;48.752;11.348;2022-09-09T14:01:42;3.38;;;1.08;;
70303;SDS011;57712;48.752;11.348;2022-09-09T14:04:08;5.50;;;1.60;;
70303;SDS011;57712;48.752;11.348;2022-09-09T14:06:36;4.90;;;1.20;;
70303;SDS011;57712;48.752;11.348;2022-09-09T14:09:09;7.95;;;1.45;;
70303;SDS011;57712;48.752;11.348;2022-09-09T14:11:38;4.93;;;1.40;;
70303;SDS011;57712;48.752;11.348;2022-09-09T14:14:06;5.50;;;1.58;;
70303;SDS011;57712;48.752;11.348;2022-09-09T14:16:33;4.60;;;1.05;;
70303;SDS011;57712;48.752;11.348;2022-09-09T14:19:00;4.60;;;1.23;;
70303;SDS011;57712;48.752;11.348;2022-09-09T14:21:27;3.92;;;1.08;;
70303;SDS011;57712;48.752;11.348;2022-09-09T14:23:54;4.95;;;1.60;;
70303;SDS011;57712;48.752;11.348;2022-09-09T14:26:21;5.22;;;1.05;;
70303;SDS011;57712;48.752;11.348;2022-09-09T14:28:48;7.05;;;1.20;;
70303;SDS011;57712;48.752;11.348;2022-09-09T14:31:23;4.97;;;0.80;;
70303;SDS011;57712;48.752;11.348;2022-09-09T14:33:50;6.80;;;1.38;;
70303;SDS011;57712;48.752;11.348;2022-09-09T14:36:17;4.63;;;1.13;;
70303;SDS011;57712;48.752;11.348;2022-09-09T14:38:44;5.30;;;1.38;;
70303;SDS011;57712;48.752;11.348;2022-09-09T14:41:11;5.45;;;1.25;;
70303;SDS011;57712;48.752;11.348;2022-09-09T14:43:39;5.50;;;1.10;;
70303;SDS011;57712;48.752;11.348;2022-09-09T14:46:10;5.45;;;1.27;;
70303;SDS011;57712;48.752;11.348;2022-09-09T14:48:39;5.30;;;1.30;;
70303;SDS011;57712;48.752;11.348;2022-09-09T14:51:14;5.35;;;1.00;;
70303;SDS011;57712;48.752;11.348;2022-09-09T14:53:43;4.75;;;1.17;;
70303;SDS011;57712;48.752;11.348;2022-09-09T14:56:12;7.40;;;1.70;;
70303;SDS011;57712;48.752;11.348;2022-09-09T14:58:40;5.13;;;1.08;;
70303;SDS011;57712;48.752;11.348;2022-09-09T15:01:13;5.43;;;1.10;;
70303;SDS011;57712;48.752;11.348;2022-09-09T15:03:42;3.92;;;1.15;;
70303;SDS011;57712;48.752;11.348;2022-09-09T15:06:14;4.20;;;1.20;;
70303;SDS011;57712;48.752;11.348;2022-09-09T15:08:42;6.47;;;1.43;;
70303;SDS011;57712;48.752;11.348;2022-09-09T15:11:10;4.68;;;0.93;;
70303;SDS011;57712;48.752;11.348;2022-09-09T15:13:38;5.85;;;1.30;;
70303;SDS011;57712;48.752;11.348;2022-09-09T15:16:07;7.20;;;1.27;;
70303;SDS011;57712;48.752;11.348;2022-09-09T15:18:41;5.32;;;1.00;;
70303;SDS011;57712;48.752;11.348;2022-09-09T15:21:09;5.47;;;0.67;;
70303;SDS011;57712;48.752;11.348;2022-09-09T15:23:36;4.85;;;1.05;;
70303;SDS011;57712;48.752;11.348;2022-09-09T15:26:03;5.15;;;1.10;;
70303;SDS011;57712;48.752;11.348;2022-09-09T15:28:31;4.95;;;1.25;;
70303;SDS011;57712;48.752;11.348;2022-09-09T15:31:08;4.80;;;0.65;;
70303;SDS011;57712;48.752;11.348;2022-09-09T15:33:38;5.13;;;0.70;;
70303;SDS011;57712;48.752;11.348;2022-09-09T15:36:14;5.63;;;0.77;;
70303;SDS011;57712;48.752;11.348;2022-09-09T15:38:41;3.90;;;1.08;;
70303;SDS011;57712;48.752;11.348;2022-09-09T15:41:07;4.03;;;0.77;;
70303;SDS011;57712;48.752;11.348;2022-09-09T15:43:34;4.70;;;1.20;;
70303;SDS011;57712;48.752;11.348;2022-09-09T15:46:02;3.90;;;0.93;;
70303;SDS011;57712;48.752;11.348;2022-09-09T15:48:50;4.05;;;0.60;;
70303;SDS011;57712;48.752;11.348;2022-09-09T15:51:20;3.72;;;1.02;;
70303;SDS011;57712;48.752;11.348;2022-09-09T15:54:06;5.15;;;0.68;;
70303;SDS011;57712;48.752;11.348;2022-09-09T15:56:33;3.53;;;0.88;;
70303;SDS011;57712;48.752;11.348;2022-09-09T15:59:01;3.87;;;0.63;;
70303;SDS011;57712;48.752;11.348;2022-09-09T16:01:32;4.45;;;0.73;;
70303;SDS011;57712;48.752;11.348;2022-09-09T16:03:59;4.13;;;1.00;;
70303;SDS011;57712;48.752;11.348;2022-09-09T16:06:26;3.33;;;0.50;;
70303;SDS011;57712;48.752;11.348;2022-09-09T16:08:55;3.08;;;0.82;;
70303;SDS011;57712;48.752;11.348;2022-09-09T16:11:23;3.60;;;0.60;;
70303;SDS011;57712;48.752;11.348;2022-09-09T16:13:52;3.15;;;0.68;;
70303;SDS011;57712;48.752;11.348;2022-09-09T16:16:21;2.92;;;0.77;;
70303;SDS011;57712;48.752;11.348;2022-09-09T16:18:53;3.28;;;0.90;;
70303;SDS011;57712;48.752;11.348;2022-09-09T16:21:28;3.58;;;0.77;;
70303;SDS011;57712;48.752;11.348;2022-09-09T16:24:00;2.77;;;0.60;;
70303;SDS011;57712;48.752;11.348;2022-09-09T16:26:29;3.70;;;0.52;;
70303;SDS011;57712;48.752;11.348;2022-09-09T16:28:57;5.10;;;0.63;;
70303;SDS011;57712;48.752;11.348;2022-09-09T16:31:25;3.58;;;0.80;;
70303;SDS011;57712;48.752;11.348;2022-09-09T16:33:52;3.35;;;0.80;;
70303;SDS011;57712;48.752;11.348;2022-09-09T16:36:20;2.87;;;0.53;;
70303;SDS011;57712;48.752;11.348;2022-09-09T16:38:55;3.55;;;0.50;;
70303;SDS011;57712;48.752;11.348;2022-09-09T16:41:24;3.90;;;0.82;;
70303;SDS011;57712;48.752;11.348;2022-09-09T16:43:52;3.95;;;0.88;;